Time;durP1;ratioP1;P1;durP2;ratioP2;P2;SDS_P1;SDS_P2;PMS_P1;PMS_P2;Temp;Humidity;BMP_temperature;BMP_pressure;BME280_temperature;BME280_humidity;BME280_pressure;Samples;Min_cycle;Max_cycle;Signal;HPM_P1;HPM_P2
2022/04/01 00:00:39;;;;;;;6.73;2.40;;;2.20;99.90;;;;;;4996407;28;20164;-78
2022/04/01 00:03:05;;;;;;;8.23;2.37;;;2.00;99.90;;;;;;4994949;28;20187;-80
2022/04/01 00:05:35;;;;;;;4.27;2.10;;;1.80;99.90;;;;;;4995835;28;20191;-79
2022/04/01 00:08:01;;;;;;;3.53;2.37;;;1.70;99.90;;;;;;4996031;28;20225;-82
2022/04/01 00:10:28;;;;;;;3.63;2.27;;;1.70;99.90;;;;;;4995696;28;20575;-79
2022/04/01 00:12:55;;;;;;;4.87;2.60;;;1.70;99.90;;;;;;4995719;28;20258;-83
2022/04/01 00:15:21;;;;;;;5.80;2.53;;;1.60;99.90;;;;;;4996295;28;20314;-79
2022/04/01 00:17:47;;;;;;;3.60;2.30;;;1.60;99.90;;;;;;4996032;28;20183;-81
2022/04/01 00:20:13;;;;;;;6.70;3.00;;;1.40;99.90;;;;;;4995706;28;20497;-82
2022/04/01 00:22:40;;;;;;;4.30;2.70;;;1.40;99.90;;;;;;4995815;28;20180;-80
2022/04/01 00:25:07;;;;;;;5.20;2.50;;;1.30;99.90;;;;;;4996174;28;20646;-81
2022/04/01 00:27:33;;;;;;;4.60;2.50;;;1.20;99.90;;;;;;4995655;28;20177;-82
2022/04/01 00:29:59;;;;;;;6.07;3.13;;;1.20;99.90;;;;;;4995918;28;20222;-83
2022/04/01 00:32:25;;;;;;;7.03;2.80;;;1.10;99.90;;;;;;4995613;28;20211;-82
2022/04/01 00:34:52;;;;;;;5.37;2.53;;;1.20;99.90;;;;;;4994208;28;20276;-82
2022/04/01 00:37:17;;;;;;;5.90;3.40;;;1.20;99.90;;;;;;4995290;28;20196;-79
2022/04/01 00:39:44;;;;;;;7.10;3.03;;;1.20;99.90;;;;;;4995551;28;20645;-81
2022/04/01 00:42:10;;;;;;;5.17;2.90;;;1.20;99.90;;;;;;4994850;28;20266;-82
2022/04/01 00:44:37;;;;;;;4.63;2.90;;;1.10;99.90;;;;;;4994266;28;20227;-83
2022/04/01 00:47:13;;;;;;;5.77;2.57;;;1.10;99.90;;;;;;4995573;28;20271;-83
2022/04/01 00:49:41;;;;;;;6.97;2.90;;;1.20;99.90;;;;;;4995266;28;20167;-83
2022/04/01 00:52:12;;;;;;;4.47;3.03;;;1.20;99.90;;;;;;4995090;28;20217;-83
2022/04/01 00:54:38;;;;;;;10.10;4.07;;;1.10;99.90;;;;;;4995294;28;20172;-84
2022/04/01 00:57:10;;;;;;;6.47;3.00;;;1.10;99.90;;;;;;4994514;28;20187;-83
2022/04/01 00:59:36;;;;;;;6.10;3.03;;;1.00;99.90;;;;;;4995406;28;20192;-83
2022/04/01 01:02:03;;;;;;;4.43;3.13;;;1.00;99.90;;;;;;4995214;28;20612;-83
2022/04/01 01:04:29;;;;;;;7.77;3.30;;;1.00;99.90;;;;;;4995243;28;20181;-82
2022/04/01 01:06:58;;;;;;;5.07;3.00;;;1.00;99.90;;;;;;4995108;28;20687;-84
2022/04/01 01:09:25;;;;;;;8.47;3.60;;;1.00;99.90;;;;;;4995156;28;20683;-82
2022/04/01 01:11:52;;;;;;;5.03;2.83;;;1.00;99.90;;;;;;4995195;28;20284;-83
2022/04/01 01:14:26;;;;;;;5.60;3.40;;;1.00;99.90;;;;;;4995118;28;20180;-82
2022/04/01 01:16:52;;;;;;;10.13;3.50;;;0.80;99.90;;;;;;4994088;28;20231;-82
2022/04/01 01:19:18;;;;;;;5.73;3.50;;;0.90;99.90;;;;;;4995151;28;20507;-79
2022/04/01 01:21:46;;;;;;;7.37;3.63;;;0.90;99.90;;;;;;4992361;28;20184;-83
2022/04/01 01:24:16;;;;;;;6.57;3.80;;;1.00;99.90;;;;;;4993872;28;20264;-82
2022/04/01 01:27:01;;;;;;;4.90;3.33;;;1.00;99.90;;;;;;4995237;28;20180;-82
2022/04/01 01:29:29;;;;;;;6.00;3.70;;;1.00;99.90;;;;;;4994894;28;20172;-79
2022/04/01 01:31:57;;;;;;;5.27;3.40;;;1.00;99.90;;;;;;4994934;28;20215;-78
2022/04/01 01:34:23;;;;;;;6.27;3.70;;;1.00;99.90;;;;;;4994790;28;20522;-82
2022/04/01 01:36:51;;;;;;;6.97;3.40;;;1.00;99.90;;;;;;4994756;28;20226;-81
2022/04/01 01:39:17;;;;;;;5.07;3.77;;;1.00;99.90;;;;;;4994954;28;20172;-79
2022/04/01 01:41:44;;;;;;;6.37;3.50;;;0.90;99.90;;;;;;4994119;28;20227;-82
2022/04/01 01:44:11;;;;;;;6.17;3.83;;;0.90;99.90;;;;;;4994986;28;20254;-82
2022/04/01 01:46:38;;;;;;;11.77;3.70;;;0.90;99.90;;;;;;4993459;28;20182;-81
2022/04/01 01:49:04;;;;;;;10.50;4.20;;;0.90;99.90;;;;;;4994339;28;20179;-81
2022/04/01 01:56:59;;;;;;;4.87;3.43;;;0.80;99.90;;;;;;4994746;28;20169;-83
2022/04/01 01:59:26;;;;;;;6.53;3.50;;;0.80;99.90;;;;;;4993477;28;20183;-83
2022/04/01 02:01:52;;;;;;;8.70;3.97;;;0.80;99.90;;;;;;4993163;28;20176;-83
2022/04/01 02:04:18;;;;;;;5.27;3.40;;;0.80;99.90;;;;;;4994664;28;20190;-83
2022/04/01 02:06:44;;;;;;;8.27;3.90;;;0.80;99.90;;;;;;4993319;28;20208;-83
2022/04/01 02:09:10;;;;;;;7.43;3.87;;;0.80;99.90;;;;;;4994729;28;20211;-83
2022/04/01 02:11:37;;;;;;;4.43;3.33;;;0.90;99.90;;;;;;4994542;28;20203;-83
2022/04/01 02:14:04;;;;;;;5.50;3.77;;;0.80;99.90;;;;;;4994759;28;20598;-84
2022/04/01 02:16:30;;;;;;;7.10;4.07;;;0.80;99.90;;;;;;5438631;22;20242;-84
2022/04/01 02:18:55;;;;;;;5.63;4.03;;;0.80;99.90;;;;;;4974011;28;20199;-83
2022/04/01 02:21:21;;;;;;;8.10;4.00;;;0.70;99.90;;;;;;4989988;28;20180;-82
2022/04/01 02:23:48;;;;;;;8.33;4.17;;;0.70;99.90;;;;;;4990108;28;20184;-84
2022/04/01 02:26:15;;;;;;;6.20;3.90;;;0.70;99.90;;;;;;4974022;28;20219;-82
2022/04/01 02:28:42;;;;;;;5.60;4.00;;;0.80;99.90;;;;;;4973994;28;20187;-82
2022/04/01 02:31:11;;;;;;;9.27;4.10;;;0.70;99.90;;;;;;4975203;28;20596;-83
2022/04/01 02:33:37;;;;;;;6.40;4.07;;;0.70;99.90;;;;;;4977335;28;20306;-83
2022/04/01 02:36:06;;;;;;;5.30;4.30;;;0.70;99.90;;;;;;4978373;28;20188;-83
2022/04/01 02:38:32;;;;;;;9.90;4.20;;;0.70;99.90;;;;;;4977298;28;20183;-84
2022/04/01 02:40:58;;;;;;;6.67;4.20;;;0.70;99.90;;;;;;4978343;28;20179;-84
2022/04/01 02:43:25;;;;;;;7.50;4.37;;;0.70;99.90;;;;;;4978687;28;20192;-82
2022/04/01 02:45:51;;;;;;;5.80;4.03;;;0.70;99.90;;;;;;4978238;28;20315;-83
2022/04/01 02:48:19;;;;;;;6.50;4.20;;;0.70;99.90;;;;;;4977985;28;20184;-83
2022/04/01 02:50:46;;;;;;;7.03;3.67;;;0.70;99.90;;;;;;4976984;28;20172;-85
2022/04/01 02:53:12;;;;;;;9.27;4.03;;;0.70;99.90;;;;;;4977956;28;20201;-83
2022/04/01 02:55:39;;;;;;;7.43;3.70;;;0.70;99.90;;;;;;4978081;28;20607;-84
2022/04/01 02:58:06;;;;;;;5.83;3.77;;;0.70;99.90;;;;;;4993267;28;20211;-85
2022/04/01 03:00:37;;;;;;;5.33;3.83;;;0.70;99.90;;;;;;4978663;28;20573;-85
2022/04/01 03:03:07;;;;;;;7.00;3.70;;;0.70;99.90;;;;;;4978163;28;20169;-85
2022/04/01 03:05:33;;;;;;;7.70;4.23;;;0.70;99.90;;;;;;4992174;28;20192;-84
2022/04/01 03:08:00;;;;;;;6.33;3.87;;;0.80;99.90;;;;;;4997264;28;20247;-85
2022/04/01 03:10:26;;;;;;;7.80;4.23;;;0.70;99.90;;;;;;4996584;28;20226;-85
2022/04/01 03:12:52;;;;;;;7.70;3.73;;;0.60;99.90;;;;;;4997355;28;20207;-84
2022/04/01 03:15:19;;;;;;;6.73;4.20;;;0.60;99.90;;;;;;4997366;28;20182;-84
2022/04/01 03:17:45;;;;;;;5.93;4.13;;;0.60;99.90;;;;;;4997130;28;20262;-84
2022/04/01 03:20:13;;;;;;;7.47;4.10;;;0.60;99.90;;;;;;4997557;28;20206;-84
2022/04/01 03:22:43;;;;;;;5.33;3.63;;;0.60;99.90;;;;;;4996762;28;20173;-85
2022/04/01 03:25:18;;;;;;;6.53;3.73;;;0.60;99.90;;;;;;4996303;28;20606;-86
2022/04/01 03:27:45;;;;;;;9.00;3.90;;;0.50;99.90;;;;;;4996085;28;20274;-84
2022/04/01 03:30:12;;;;;;;6.83;3.87;;;0.50;99.90;;;;;;4996130;28;20218;-84
2022/04/01 03:32:38;;;;;;;7.23;4.00;;;0.50;99.90;;;;;;4997238;28;20203;-85
2022/04/01 03:35:09;;;;;;;6.93;3.87;;;0.50;99.90;;;;;;4996856;28;20195;-85
2022/04/01 03:37:35;;;;;;;9.27;4.30;;;0.40;99.90;;;;;;4996860;28;20186;-84
2022/04/01 03:40:01;;;;;;;7.13;3.90;;;0.40;99.90;;;;;;4997467;28;20620;-84
2022/04/01 03:42:30;;;;;;;7.33;4.27;;;0.40;99.90;;;;;;4996937;28;20265;-84
2022/04/01 03:44:58;;;;;;;6.00;4.10;;;0.40;99.90;;;;;;4996118;28;20330;-85
2022/04/01 03:47:30;;;;;;;8.47;4.03;;;0.40;99.90;;;;;;4995689;28;20227;-86
2022/04/01 03:50:00;;;;;;;7.70;3.90;;;0.40;99.90;;;;;;4995765;28;20183;-85
2022/04/01 03:52:31;;;;;;;6.70;3.67;;;0.30;99.90;;;;;;4995323;28;20221;-85
2022/04/01 03:55:00;;;;;;;6.20;3.97;;;0.30;99.90;;;;;;4996963;28;20164;-85
2022/04/01 03:57:35;;;;;;;6.97;4.00;;;0.30;99.90;;;;;;4996649;28;20182;-86
2022/04/01 04:00:00;;;;;;;6.27;3.80;;;0.30;99.90;;;;;;4996572;28;20159;-86
2022/04/01 04:02:26;;;;;;;9.97;4.33;;;0.30;99.90;;;;;;4995314;28;20691;-86
2022/04/01 04:04:55;;;;;;;8.17;3.70;;;0.30;99.90;;;;;;4996727;28;20199;-85
2022/04/01 04:07:23;;;;;;;9.53;4.37;;;0.30;99.90;;;;;;4996047;28;20178;-86
2022/04/01 04:09:49;;;;;;;7.43;4.20;;;0.30;99.90;;;;;;4996670;28;20182;-86
2022/04/01 04:12:17;;;;;;;6.03;3.93;;;0.30;99.90;;;;;;4995299;28;20693;-86
2022/04/01 04:14:43;;;;;;;8.87;4.13;;;0.20;99.90;;;;;;4996445;28;20171;-86
2022/04/01 04:17:16;;;;;;;8.80;3.93;;;0.30;99.90;;;;;;4995122;28;20221;-85
2022/04/01 04:20:06;;;;;;;6.57;4.07;;;0.20;99.90;;;;;;4996640;28;20163;-80
2022/04/01 04:22:57;;;;;;;9.60;4.10;;;0.30;99.90;;;;;;4994713;28;20171;-79
2022/04/01 04:25:31;;;;;;;7.17;3.63;;;0.20;99.90;;;;;;4996151;28;20203;-80
2022/04/01 04:28:00;;;;;;;6.67;4.30;;;0.20;99.90;;;;;;4996109;28;20199;-80
2022/04/01 04:30:37;;;;;;;6.63;4.23;;;0.20;99.90;;;;;;4996128;28;20254;-80
2022/04/01 04:33:08;;;;;;;8.70;4.23;;;0.10;99.90;;;;;;4994588;28;20199;-79
2022/04/01 04:35:39;;;;;;;10.60;4.57;;;0.10;99.90;;;;;;4995542;28;20579;-79
2022/04/01 04:38:06;;;;;;;7.77;4.37;;;0.20;99.90;;;;;;4995828;28;20176;-79
2022/04/01 04:40:34;;;;;;;9.00;4.57;;;0.10;99.90;;;;;;4995851;28;20502;-79
2022/04/01 04:43:01;;;;;;;8.77;4.20;;;0.10;99.90;;;;;;4994508;28;20274;-81
2022/04/01 04:45:27;;;;;;;7.53;4.37;;;0.20;99.90;;;;;;4995517;28;20649;-80
2022/04/01 04:47:54;;;;;;;7.00;4.30;;;0.20;99.90;;;;;;4994765;28;20207;-80
2022/04/01 04:50:21;;;;;;;6.13;3.93;;;0.20;99.90;;;;;;5000784;28;20233;-84
2022/04/01 04:52:50;;;;;;;7.50;4.23;;;0.20;99.90;;;;;;5013670;28;20207;-80
2022/04/01 04:55:17;;;;;;;5.17;3.80;;;0.20;99.90;;;;;;5014617;28;20175;-79
2022/04/01 04:57:44;;;;;;;7.20;3.80;;;0.20;99.90;;;;;;5014732;28;20261;-79
2022/04/01 05:00:11;;;;;;;7.23;4.13;;;0.30;99.90;;;;;;5014829;28;20175;-82
2022/04/01 05:03:11;;;;;;;9.20;4.13;;;0.30;99.90;;;;;;5014649;28;20250;-82
2022/04/01 05:05:40;;;;;;;6.13;3.50;;;0.30;99.90;;;;;;4997340;28;20266;-80
2022/04/01 05:08:53;;;;;;;4.87;3.53;;;0.30;99.90;;;;;;4975568;28;20188;-81
2022/04/01 05:11:48;;;;;;;6.23;3.40;;;0.30;99.90;;;;;;4974580;28;20184;-79
2022/04/01 05:14:28;;;;;;;6.43;3.40;;;0.30;99.90;;;;;;4976009;28;20513;-80
2022/04/01 05:17:00;;;;;;;5.60;3.17;;;0.30;99.90;;;;;;4976069;28;20223;-87
2022/04/01 05:19:28;;;;;;;6.30;3.80;;;0.30;99.90;;;;;;4976207;28;20168;-88
2022/04/01 05:22:06;;;;;;;5.57;3.73;;;0.30;99.90;;;;;;4975766;28;20168;-86
2022/04/01 05:24:38;;;;;;;7.23;3.60;;;0.30;99.90;;;;;;4976168;28;20168;-88
2022/04/01 05:27:07;;;;;;;6.40;3.73;;;0.30;99.90;;;;;;4976193;28;20176;-88
2022/04/01 05:29:38;;;;;;;8.57;4.00;;;0.30;99.90;;;;;;4976020;28;20571;-87
2022/04/01 05:32:10;;;;;;;7.40;3.40;;;0.30;99.90;;;;;;4976135;28;20295;-87
2022/04/01 05:34:43;;;;;;;7.43;3.73;;;0.30;99.90;;;;;;4999012;28;20187;-86
2022/04/01 05:37:09;;;;;;;6.33;3.47;;;0.20;99.90;;;;;;4995586;28;20288;-87
2022/04/01 05:39:37;;;;;;;5.53;3.20;;;0.20;99.90;;;;;;4994512;28;20190;-87
2022/04/01 05:42:07;;;;;;;6.63;3.27;;;0.30;99.90;;;;;;4994100;28;20176;-87
2022/04/01 05:44:34;;;;;;;5.30;3.40;;;0.30;99.90;;;;;;4995308;28;20582;-87
2022/04/01 05:47:00;;;;;;;9.37;3.97;;;0.30;99.90;;;;;;4995461;28;20638;-87
2022/04/01 05:49:28;;;;;;;7.03;4.30;;;0.30;99.90;;;;;;4995373;28;20183;-88
2022/04/01 05:51:54;;;;;;;6.77;4.07;;;0.30;99.90;;;;;;4995021;28;20204;-87
2022/04/01 05:54:22;;;;;;;7.43;5.10;;;0.40;99.90;;;;;;4995440;28;20224;-88
2022/04/01 05:56:50;;;;;;;13.93;9.70;;;0.50;99.90;;;;;;4995261;28;20179;-87
2022/04/01 05:59:17;;;;;;;14.03;3.27;;;0.50;99.90;;;;;;4995148;28;20174;-87
2022/04/01 06:02:12;;;;;;;8.90;3.53;;;0.60;99.90;;;;;;4995838;28;20166;-89
2022/04/01 06:05:19;;;;;;;5.27;2.90;;;0.60;99.90;;;;;;4976794;28;20574;-89
2022/04/01 06:08:02;;;;;;;8.10;2.90;;;0.80;99.90;;;;;;4995805;28;20203;-87
2022/04/01 06:10:57;;;;;;;5.77;3.30;;;0.80;99.90;;;;;;4999001;28;20259;-89
2022/04/01 06:13:34;;;;;;;8.87;3.17;;;0.80;99.90;;;;;;4959389;28;20311;-86
2022/04/01 06:16:08;;;;;;;6.73;2.97;;;0.90;99.90;;;;;;4998767;28;20673;-88
2022/04/01 06:18:40;;;;;;;5.50;3.47;;;0.90;99.90;;;;;;4997819;28;20247;-83
2022/04/01 06:21:09;;;;;;;5.67;2.97;;;1.00;99.90;;;;;;4998400;28;20236;-83
2022/04/01 06:23:50;;;;;;;5.87;2.97;;;0.90;99.90;;;;;;4995752;28;20181;-79
2022/04/01 06:26:16;;;;;;;4.57;3.13;;;1.00;99.90;;;;;;4996082;28;20180;-83
2022/04/01 06:28:55;;;;;;;6.83;3.00;;;1.00;99.90;;;;;;4998154;28;20663;-89
2022/04/01 06:31:25;;;;;;;5.87;3.30;;;1.00;99.90;;;;;;4998113;28;20191;-88
2022/04/01 06:34:25;;;;;;;6.03;3.00;;;1.20;99.90;;;;;;4997289;28;20302;-78
2022/04/01 06:36:53;;;;;;;8.77;3.37;;;1.20;99.90;;;;;;4962635;28;20630;-89
2022/04/01 06:39:58;;;;;;;5.27;3.07;;;1.20;99.90;;;;;;4996531;28;20650;-89
2022/04/01 06:42:27;;;;;;;10.00;4.00;;;1.30;99.90;;;;;;4996461;28;20254;-87
2022/04/01 06:44:52;;;;;;;6.53;3.00;;;1.20;99.90;;;;;;4977799;28;20208;-89
2022/04/01 06:47:18;;;;;;;5.07;2.93;;;1.20;99.90;;;;;;4976499;28;20258;-88
2022/04/01 06:49:45;;;;;;;5.90;3.03;;;1.20;99.90;;;;;;4978018;28;20181;-89
2022/04/01 06:52:11;;;;;;;7.17;3.07;;;1.20;99.90;;;;;;4976682;28;20655;-88
2022/04/01 06:54:37;;;;;;;4.80;2.90;;;1.30;99.90;;;;;;4977986;28;20275;-90
2022/04/01 06:57:03;;;;;;;4.67;2.93;;;1.30;99.90;;;;;;4977733;28;20245;-89
2022/04/01 06:59:29;;;;;;;5.50;3.30;;;1.30;99.90;;;;;;4977253;28;20234;-90
2022/04/01 07:01:54;;;;;;;5.87;3.70;;;1.40;99.90;;;;;;4977735;28;20179;-85
2022/04/01 07:04:20;;;;;;;4.07;3.03;;;1.50;99.90;;;;;;4976584;28;20186;-89
2022/04/01 07:06:47;;;;;;;7.27;2.80;;;1.50;99.90;;;;;;4977675;28;20183;-89
2022/04/01 07:09:12;;;;;;;4.77;2.97;;;1.60;99.90;;;;;;4976525;28;20198;-87
2022/04/01 07:11:38;;;;;;;7.27;3.23;;;1.70;99.90;;;;;;4977370;28;20227;-89
2022/04/01 07:14:04;;;;;;;4.27;2.63;;;1.70;99.90;;;;;;4990378;28;20200;-89
2022/04/01 07:16:29;;;;;;;5.27;3.07;;;1.80;99.90;;;;;;4995811;28;20262;-89
2022/04/01 07:18:55;;;;;;;4.90;2.77;;;1.70;99.90;;;;;;4996880;28;20211;-89
2022/04/01 07:21:21;;;;;;;6.37;2.90;;;1.80;99.90;;;;;;4996538;28;20188;-89
2022/04/01 07:23:46;;;;;;;4.80;3.00;;;1.90;99.90;;;;;;4997380;28;20238;-85
2022/04/01 07:26:12;;;;;;;5.53;3.03;;;1.80;99.90;;;;;;4995983;28;20191;-89
2022/04/01 07:28:38;;;;;;;6.70;3.57;;;1.90;99.90;;;;;;4995649;28;20243;-89
2022/04/01 07:32:29;;;;;;;8.53;2.93;;;1.90;99.90;;;;;;4996313;28;20183;-88
2022/04/01 07:33:49;;;;;;;8.57;2.83;;;1.90;99.90;;;;;;4996005;28;20207;-88
2022/04/01 07:36:15;;;;;;;6.60;2.83;;;2.00;99.90;;;;;;4996351;28;20234;-89
2022/04/01 07:38:40;;;;;;;9.13;3.03;;;2.00;99.90;;;;;;4997321;28;20187;-88
2022/04/01 07:41:06;;;;;;;7.80;3.27;;;1.90;99.90;;;;;;4996455;28;20186;-88
2022/04/01 07:43:32;;;;;;;5.20;2.63;;;1.90;99.90;;;;;;4996374;28;20254;-88
2022/04/01 07:45:58;;;;;;;6.73;3.10;;;2.00;99.90;;;;;;4996406;28;20185;-88
2022/04/01 07:48:24;;;;;;;5.67;3.10;;;2.00;99.90;;;;;;4995962;28;20176;-89
2022/04/01 07:50:49;;;;;;;4.47;2.90;;;2.00;99.90;;;;;;4995164;28;20211;-88
2022/04/01 07:53:18;;;;;;;4.43;2.80;;;2.00;99.90;;;;;;4994992;28;20208;-88
2022/04/01 07:55:48;;;;;;;7.10;2.87;;;2.00;99.90;;;;;;4995993;28;20207;-88
2022/04/01 07:58:15;;;;;;;5.37;2.70;;;2.10;99.90;;;;;;4996109;28;20176;-87
2022/04/01 08:00:41;;;;;;;5.47;2.60;;;2.20;99.90;;;;;;4996053;28;20178;-87
2022/04/01 08:03:08;;;;;;;5.43;2.53;;;2.20;99.90;;;;;;4994515;28;20175;-86
2022/04/01 08:05:33;;;;;;;5.40;2.60;;;2.30;99.90;;;;;;4994737;28;20187;-86
2022/04/01 08:07:59;;;;;;;4.57;2.60;;;2.30;99.90;;;;;;4994379;28;20264;-85
2022/04/01 08:10:25;;;;;;;4.63;2.63;;;2.50;99.90;;;;;;4994879;28;20517;-85
2022/04/01 08:12:51;;;;;;;4.50;2.47;;;2.50;99.90;;;;;;4993711;28;20219;-86
2022/04/01 08:15:18;;;;;;;4.67;2.60;;;2.40;99.90;;;;;;4994346;28;20194;-86
2022/04/01 08:17:44;;;;;;;3.87;2.57;;;2.50;99.90;;;;;;4993755;28;20235;-85
2022/04/01 08:20:12;;;;;;;4.17;2.93;;;2.60;99.90;;;;;;4993952;28;20187;-84
2022/04/01 08:22:38;;;;;;;4.90;2.90;;;2.60;99.90;;;;;;4995184;28;20160;-85
2022/04/01 08:25:05;;;;;;;6.47;3.33;;;2.70;99.90;;;;;;4995296;28;20175;-85
2022/04/01 08:27:30;;;;;;;4.00;2.80;;;2.70;99.90;;;;;;5010435;28;20250;-87
2022/04/01 08:29:59;;;;;;;3.60;2.50;;;2.70;99.90;;;;;;4994427;28;20219;-85
2022/04/01 08:32:29;;;;;;;4.43;2.10;;;2.70;99.90;;;;;;4995118;28;20738;-85
2022/04/01 08:34:55;;;;;;;8.73;2.70;;;2.70;99.90;;;;;;4995241;28;20168;-85
2022/04/01 08:37:21;;;;;;;3.70;2.47;;;2.70;99.90;;;;;;4994877;28;20180;-84
2022/04/01 08:39:47;;;;;;;4.30;2.47;;;2.80;99.90;;;;;;4993630;28;20207;-84
2022/04/01 08:42:13;;;;;;;6.37;2.20;;;2.90;99.90;;;;;;4993616;28;20621;-86
2022/04/01 08:44:42;;;;;;;4.40;2.30;;;3.00;99.90;;;;;;4993472;28;20521;-84
2022/04/01 08:47:08;;;;;;;4.63;2.20;;;3.00;99.90;;;;;;4994766;28;20190;-86
2022/04/01 08:49:34;;;;;;;7.30;2.40;;;3.10;99.90;;;;;;4992232;28;20204;-85
2022/04/01 08:52:00;;;;;;;4.17;2.30;;;3.20;99.90;;;;;;4993052;28;20637;-84
2022/04/01 08:54:26;;;;;;;6.23;2.90;;;3.10;99.90;;;;;;4992019;28;20185;-85
2022/04/01 08:56:52;;;;;;;5.30;2.30;;;3.20;99.90;;;;;;4994191;28;20234;-86
2022/04/01 08:59:18;;;;;;;3.33;2.03;;;3.10;99.90;;;;;;4993609;28;20192;-85
2022/04/01 09:01:45;;;;;;;6.53;2.20;;;3.30;99.90;;;;;;4994441;28;20171;-84
2022/04/01 09:04:22;;;;;;;4.23;2.57;;;3.20;99.90;;;;;;4994224;28;20183;-84
2022/04/01 09:06:50;;;;;;;4.83;2.27;;;3.40;99.90;;;;;;4993204;28;20614;-84
2022/04/01 09:09:24;;;;;;;6.97;2.30;;;3.30;99.70;;;;;;4994323;28;20275;-84
2022/04/01 09:12:11;;;;;;;4.83;1.90;;;3.40;99.90;;;;;;4994069;28;20213;-86
2022/04/01 09:14:37;;;;;;;3.87;2.10;;;3.40;99.50;;;;;;4993444;28;20188;-85
2022/04/01 09:17:05;;;;;;;3.33;1.97;;;3.40;98.80;;;;;;4992941;28;20238;-84
2022/04/01 09:19:35;;;;;;;5.40;2.10;;;3.50;99.50;;;;;;4993061;28;20211;-84
2022/04/01 09:22:35;;;;;;;6.43;2.13;;;3.60;99.20;;;;;;4992823;28;20183;-84
2022/04/01 09:25:13;;;;;;;7.50;2.10;;;3.60;99.00;;;;;;4951233;28;20208;-87
2022/04/01 09:27:46;;;;;;;3.00;1.90;;;3.60;98.10;;;;;;4993828;28;20217;-86
2022/04/01 09:30:13;;;;;;;5.10;1.97;;;3.50;97.70;;;;;;4991951;28;20190;-84
2022/04/01 09:32:57;;;;;;;3.60;1.90;;;3.50;98.40;;;;;;4993902;28;20204;-83
2022/04/01 09:35:30;;;;;;;6.57;2.30;;;3.60;99.80;;;;;;4993048;28;20495;-87
2022/04/01 09:37:59;;;;;;;3.83;1.97;;;3.60;97.40;;;;;;4993984;28;20197;-83
2022/04/01 09:40:25;;;;;;;10.20;2.47;;;3.50;98.00;;;;;;4991693;28;20187;-85
2022/04/01 09:42:57;;;;;;;3.50;1.90;;;3.60;97.40;;;;;;4995242;28;20201;-88
2022/04/01 09:45:30;;;;;;;4.80;1.90;;;3.50;97.20;;;;;;4998250;28;20167;-87
2022/04/01 09:47:59;;;;;;;3.67;2.00;;;3.60;97.20;;;;;;4998120;28;20168;-85
2022/04/01 09:50:29;;;;;;;3.77;2.40;;;3.70;99.40;;;;;;4998011;28;20238;-83
2022/04/01 09:53:04;;;;;;;3.40;2.23;;;3.80;98.90;;;;;;4998061;28;20203;-83
2022/04/01 09:55:36;;;;;;;3.17;1.83;;;3.90;97.70;;;;;;4997914;28;20200;-85
2022/04/01 09:58:02;;;;;;;6.40;1.90;;;3.90;97.50;;;;;;4998140;28;20550;-85
2022/04/01 10:00:28;;;;;;;6.37;1.70;;;3.90;98.30;;;;;;4997861;28;20168;-84
2022/04/01 10:02:54;;;;;;;3.37;1.80;;;3.80;95.60;;;;;;4997644;28;20186;-84
2022/04/01 10:05:20;;;;;;;3.97;2.10;;;3.70;96.50;;;;;;4997512;28;20602;-85
2022/04/01 10:07:46;;;;;;;3.77;1.50;;;3.80;98.10;;;;;;4996121;28;20194;-85
2022/04/01 10:10:12;;;;;;;2.77;1.77;;;3.80;97.20;;;;;;5002321;28;20644;-85
2022/04/01 10:12:42;;;;;;;9.87;2.30;;;3.90;97.70;;;;;;4996803;28;20211;-84
2022/04/01 10:15:08;;;;;;;5.17;2.10;;;3.90;97.30;;;;;;4997515;28;20559;-85
2022/04/01 10:17:37;;;;;;;3.80;1.90;;;4.10;97.40;;;;;;4997342;28;20230;-86
2022/04/01 10:20:03;;;;;;;8.17;1.97;;;4.10;96.70;;;;;;4997468;28;20677;-88
2022/04/01 10:22:29;;;;;;;3.03;1.67;;;4.00;96.10;;;;;;4996376;28;20282;-86
2022/04/01 10:25:01;;;;;;;5.00;2.03;;;4.10;94.30;;;;;;4997688;28;20243;-86
2022/04/01 10:27:43;;;;;;;3.43;1.60;;;4.10;96.20;;;;;;4995046;28;20217;-87
2022/04/01 10:30:13;;;;;;;4.83;1.73;;;4.10;95.40;;;;;;4997428;28;20168;-88
2022/04/01 10:32:42;;;;;;;4.03;1.90;;;4.10;95.90;;;;;;4996307;28;20215;-88
2022/04/01 10:35:29;;;;;;;6.37;1.93;;;4.10;95.80;;;;;;4996632;28;20180;-89
2022/04/01 10:38:17;;;;;;;4.40;2.50;;;4.20;94.50;;;;;;4996934;28;20638;-86
2022/04/01 10:40:45;;;;;;;5.97;1.93;;;4.20;96.10;;;;;;4981067;28;20201;-87
2022/04/01 10:43:19;;;;;;;3.60;2.10;;;4.20;94.30;;;;;;4997535;28;20515;-86
2022/04/01 10:46:05;;;;;;;3.57;1.60;;;4.30;94.60;;;;;;4996466;28;20276;-86
2022/04/01 10:51:38;;;;;;;2.93;1.87;;;4.30;92.90;;;;;;4997443;28;20175;-89
2022/04/01 10:54:24;;;;;;;4.63;1.90;;;4.30;93.60;;;;;;4996716;28;20214;-90
2022/04/01 10:57:05;;;;;;;3.20;1.50;;;4.30;91.30;;;;;;4997181;28;20187;-93
2022/04/01 10:59:45;;;;;;;4.17;1.47;;;4.40;91.00;;;;;;4996514;28;20179;-90
2022/04/01 11:02:15;;;;;;;3.10;1.50;;;4.40;90.20;;;;;;4997192;28;20175;-89
2022/04/01 11:04:43;;;;;;;2.60;1.53;;;4.50;89.20;;;;;;4996174;28;20176;-91
2022/04/01 11:07:23;;;;;;;7.40;1.57;;;4.50;90.50;;;;;;4996983;28;20229;-91
2022/04/01 11:09:51;;;;;;;2.43;1.60;;;4.50;89.60;;;;;;4997160;28;20194;-93
2022/04/01 11:12:21;;;;;;;3.37;1.40;;;4.50;87.70;;;;;;4997076;28;20207;-91
2022/04/01 11:14:59;;;;;;;2.77;1.30;;;4.50;85.20;;;;;;4992279;28;20203;-91
2022/04/01 11:17:34;;;;;;;3.20;1.40;;;4.50;88.80;;;;;;4976712;28;20619;-93
2022/04/01 11:20:22;;;;;;;1.90;1.10;;;4.60;87.40;;;;;;4978950;28;20172;-90
2022/04/01 11:22:54;;;;;;;2.83;1.70;;;4.60;86.90;;;;;;4977995;28;20191;-92
2022/04/01 11:25:23;;;;;;;3.83;1.60;;;4.70;89.00;;;;;;4977916;28;20264;-93
2022/04/01 11:27:55;;;;;;;3.13;1.50;;;4.70;88.90;;;;;;4978627;28;20177;-94
2022/04/01 11:30:24;;;;;;;5.53;2.20;;;4.70;86.20;;;;;;4979935;28;20259;-92
2022/04/01 11:33:01;;;;;;;4.70;1.83;;;4.80;88.60;;;;;;4979333;28;20209;-91
2022/04/01 11:35:34;;;;;;;8.13;2.00;;;4.70;85.40;;;;;;4981740;28;20177;-89
2022/04/01 11:38:01;;;;;;;6.43;2.00;;;4.80;88.40;;;;;;4983516;28;20188;-90
2022/04/01 11:40:31;;;;;;;5.57;1.83;;;4.80;86.70;;;;;;4996238;28;20180;-89
2022/04/01 11:42:58;;;;;;;5.83;2.00;;;4.80;88.70;;;;;;4976977;28;20169;-94
2022/04/01 11:45:26;;;;;;;4.13;2.00;;;4.90;88.60;;;;;;4979799;28;20176;-91
2022/04/01 11:47:52;;;;;;;3.17;1.97;;;5.00;88.50;;;;;;4995757;28;20184;-92
2022/04/01 11:50:20;;;;;;;5.70;1.93;;;5.10;86.80;;;;;;4995762;28;20176;-92
2022/04/01 11:52:54;;;;;;;3.83;1.80;;;5.20;88.20;;;;;;4994858;28;20235;-89
2022/04/01 11:55:25;;;;;;;3.97;1.80;;;5.20;87.10;;;;;;4995849;28;20195;-90
2022/04/01 11:57:57;;;;;;;5.87;2.10;;;5.30;88.30;;;;;;4996103;28;20184;-89
2022/04/01 12:00:25;;;;;;;6.23;1.90;;;5.20;85.90;;;;;;4994842;28;20180;-88
2022/04/01 12:02:52;;;;;;;5.57;2.10;;;5.30;89.80;;;;;;4994869;28;20184;-88
2022/04/01 12:05:18;;;;;;;5.67;2.33;;;5.40;86.00;;;;;;4993911;28;20180;-87
2022/04/01 12:10:39;;;;;;;7.70;1.70;;;5.40;88.30;;;;;;4996185;28;20218;-88
2022/04/01 12:13:09;;;;;;;4.83;1.97;;;5.40;89.10;;;;;;4995468;28;20207;-90
2022/04/01 12:15:38;;;;;;;3.40;1.60;;;5.50;88.30;;;;;;4994496;28;20180;-87
2022/04/01 12:18:08;;;;;;;10.30;2.10;;;5.50;87.90;;;;;;4995236;28;20193;-88
2022/04/01 12:20:42;;;;;;;2.37;1.60;;;5.60;85.00;;;;;;4995639;28;20180;-86
2022/04/01 12:23:08;;;;;;;6.23;1.90;;;5.50;81.00;;;;;;4995491;28;20237;-87
2022/04/01 12:25:36;;;;;;;5.10;1.53;;;5.50;78.40;;;;;;4996609;28;20202;-84
2022/04/01 12:28:26;;;;;;;3.87;1.50;;;5.50;81.50;;;;;;4994293;28;20184;-84
2022/04/01 12:30:55;;;;;;;3.57;1.73;;;5.60;83.70;;;;;;4957146;28;20234;-86
2022/04/01 12:33:24;;;;;;;2.13;1.50;;;5.80;86.00;;;;;;4993817;28;20253;-87
2022/04/01 12:35:57;;;;;;;5.17;1.63;;;5.80;81.50;;;;;;4993268;28;20194;-87
2022/04/01 12:38:25;;;;;;;4.60;1.40;;;5.90;82.60;;;;;;4995174;28;20250;-86
2022/04/01 12:41:02;;;;;;;3.93;1.33;;;5.90;80.60;;;;;;4995003;28;20168;-87
2022/04/01 12:43:52;;;;;;;2.50;1.47;;;5.70;75.60;;;;;;4995186;28;20226;-88
2022/04/01 12:46:34;;;;;;;7.47;1.93;;;5.70;79.00;;;;;;4993840;28;20164;-88
2022/04/01 12:49:11;;;;;;;7.53;1.40;;;5.70;78.80;;;;;;4993884;28;20183;-88
2022/04/01 12:51:39;;;;;;;6.53;1.30;;;5.70;75.90;;;;;;4994761;28;20219;-89
2022/04/01 12:54:08;;;;;;;9.13;1.43;;;5.70;75.50;;;;;;4995303;28;20184;-88
2022/04/01 12:56:42;;;;;;;4.77;1.37;;;5.80;76.70;;;;;;4994989;28;20206;-90
2022/04/01 12:59:10;;;;;;;4.63;1.50;;;5.90;76.30;;;;;;4994936;28;20230;-88
2022/04/01 13:01:41;;;;;;;6.27;1.27;;;5.80;76.30;;;;;;4993470;28;20627;-86
2022/04/01 13:04:09;;;;;;;8.13;1.30;;;5.80;74.50;;;;;;4995292;28;20164;-87
2022/04/01 13:06:36;;;;;;;7.37;1.30;;;5.80;75.60;;;;;;4994652;28;20249;-89
2022/04/01 13:09:07;;;;;;;6.90;2.13;;;5.70;75.40;;;;;;4993241;28;20229;-87
2022/04/01 13:11:38;;;;;;;6.17;1.53;;;5.70;75.10;;;;;;4995845;28;20167;-89
2022/04/01 13:14:17;;;;;;;3.70;1.40;;;5.70;75.50;;;;;;4993918;28;20207;-87
2022/04/01 13:16:43;;;;;;;3.47;1.10;;;5.70;77.30;;;;;;4993946;28;20686;-86
2022/04/01 13:19:23;;;;;;;9.03;1.70;;;5.70;75.70;;;;;;4992204;28;20688;-88
2022/04/01 13:21:50;;;;;;;2.43;1.33;;;5.70;76.90;;;;;;4992871;28;20512;-87
2022/04/01 13:24:21;;;;;;;5.63;1.90;;;5.80;78.80;;;;;;4992712;28;20179;-87